createdAt,value
2023-05-23T00:00:01.630Z,6.20
2023-05-23T00:02:29.337Z,6.80
2023-05-23T00:04:58.712Z,6.10
2023-05-23T00:07:26.487Z,7.10
2023-05-23T00:09:53.942Z,6.50
2023-05-23T00:12:22.567Z,6.60
2023-05-23T00:14:50.448Z,6.20
2023-05-23T00:17:17.818Z,6.20
2023-05-23T00:19:46.389Z,6.20
2023-05-23T00:22:15.784Z,5.90
2023-05-23T00:24:44.093Z,5.80
2023-05-23T00:27:11.529Z,5.90
2023-05-23T00:29:38.954Z,6.50
2023-05-23T00:32:06.562Z,6.40
2023-05-23T00:34:34.678Z,6.10
2023-05-23T00:37:02.402Z,6.60
2023-05-23T00:39:29.941Z,6.60
2023-05-23T00:41:58.016Z,6.80
2023-05-23T00:44:26.532Z,7.00
2023-05-23T00:46:55.632Z,7.20
2023-05-23T00:49:23.495Z,7.10
2023-05-23T00:51:52.236Z,7.40
2023-05-23T00:54:29.665Z,6.80
2023-05-23T00:56:57.220Z,7.20
2023-05-23T00:59:24.965Z,6.70
2023-05-23T01:01:53.188Z,6.80
2023-05-23T01:04:20.682Z,7.50
2023-05-23T01:06:49.326Z,7.40
2023-05-23T01:09:17.003Z,6.80
2023-05-23T01:11:50.781Z,7.00
2023-05-23T01:14:22.220Z,6.00
2023-05-23T01:16:56.137Z,6.40
2023-05-23T01:19:44.785Z,6.80
2023-05-23T01:22:16.641Z,6.60
2023-05-23T01:24:55.633Z,6.90
2023-05-23T01:27:50.581Z,6.10
2023-05-23T01:30:21.168Z,7.10
2023-05-23T01:32:49.185Z,6.80
2023-05-23T01:35:20.677Z,6.30
2023-05-23T01:37:48.140Z,6.50
2023-05-23T01:40:15.616Z,6.40
2023-05-23T01:42:43.450Z,6.10
2023-05-23T01:45:11.431Z,6.20
2023-05-23T01:47:39.072Z,6.60
2023-05-23T01:50:07.230Z,6.00
2023-05-23T01:52:34.703Z,6.30
2023-05-23T01:55:02.467Z,6.90
2023-05-23T01:57:30.220Z,6.80
2023-05-23T01:59:57.768Z,6.20
2023-05-23T02:02:25.398Z,6.40
2023-05-23T02:18:30.147Z,7.30
2023-05-23T02:20:57.917Z,7.60
2023-05-23T02:23:25.436Z,8.10
2023-05-23T02:25:52.839Z,7.40
2023-05-23T02:28:20.771Z,8.50
2023-05-23T02:30:50.171Z,8.00
2023-05-23T02:33:18.017Z,7.50
2023-05-23T02:35:45.469Z,7.40
2023-05-23T02:38:12.876Z,7.90
2023-05-23T02:40:41.471Z,7.30
2023-05-23T02:43:08.868Z,7.80
2023-05-23T02:45:36.414Z,8.20
2023-05-23T02:48:04.825Z,7.60
2023-05-23T02:50:32.303Z,6.90
2023-05-23T02:52:59.787Z,6.90
2023-05-23T02:55:27.790Z,7.10
2023-05-23T02:57:56.899Z,7.00
2023-05-23T03:00:25.004Z,7.40
2023-05-23T03:02:54.946Z,7.30
2023-05-23T03:05:22.457Z,6.90
2023-05-23T03:07:52.052Z,6.90
2023-05-23T03:10:19.606Z,7.70
2023-05-23T03:12:47.279Z,6.70
2023-05-23T03:15:15.402Z,7.40
2023-05-23T03:17:43.077Z,8.00
2023-05-23T03:20:11.295Z,7.10
2023-05-23T03:22:39.372Z,6.40
2023-05-23T03:25:07.272Z,7.40
2023-05-23T03:27:34.666Z,7.20
2023-05-23T03:30:03.740Z,6.90
2023-05-23T03:32:31.151Z,6.40
2023-05-23T03:34:58.546Z,5.90
2023-05-23T03:37:25.892Z,5.90
2023-05-23T03:39:53.330Z,6.40
2023-05-23T03:42:20.672Z,5.70
2023-05-23T03:44:48.099Z,5.00
2023-05-23T03:47:15.684Z,5.60
2023-05-23T03:49:45.256Z,6.00
2023-05-23T03:52:13.026Z,6.00
2023-05-23T03:54:40.493Z,6.20
2023-05-23T03:57:08.198Z,5.40
2023-05-23T03:59:35.737Z,5.10
2023-05-23T04:02:03.481Z,6.00
2023-05-23T04:04:31.108Z,6.10
2023-05-23T04:06:59.625Z,6.40
2023-05-23T04:09:27.703Z,5.80
2023-05-23T04:11:55.079Z,5.70
2023-05-23T04:14:24.390Z,6.40
2023-05-23T04:16:52.544Z,6.40
2023-05-23T04:19:20.111Z,6.10
2023-05-23T04:21:47.576Z,5.80
2023-05-23T04:24:17.145Z,6.30
2023-05-23T04:26:44.948Z,6.70
2023-05-23T04:29:12.490Z,6.20
2023-05-23T04:31:40.209Z,6.20
2023-05-23T04:34:08.401Z,7.00
2023-05-23T04:36:38.776Z,6.10
2023-05-23T04:39:06.278Z,6.30
2023-05-23T04:41:38.911Z,6.00
2023-05-23T04:44:26.844Z,6.20
2023-05-23T04:47:09.761Z,6.50
2023-05-23T04:50:04.303Z,7.00
2023-05-23T04:52:34.194Z,6.90
2023-05-23T04:55:02.090Z,5.70
2023-05-23T04:57:29.723Z,6.10
2023-05-23T04:59:57.487Z,7.00
2023-05-23T05:02:27.247Z,6.70
2023-05-23T05:04:54.733Z,6.00
2023-05-23T05:07:22.316Z,6.20
2023-05-23T05:09:49.749Z,6.00
2023-05-23T05:12:17.766Z,6.90
2023-05-23T05:14:45.247Z,6.20
2023-05-23T05:17:13.093Z,6.40
2023-05-23T05:20:07.523Z,6.60
2023-05-23T05:22:37.065Z,6.10
2023-05-23T05:25:06.616Z,5.80
2023-05-23T05:27:35.117Z,6.40
2023-05-23T05:30:05.114Z,5.70
2023-05-23T05:32:34.237Z,6.00
2023-05-23T05:35:03.908Z,5.90
2023-05-23T05:37:31.362Z,5.50
2023-05-23T05:39:59.307Z,5.60
2023-05-23T05:42:27.633Z,5.70
2023-05-23T05:44:55.444Z,5.80
2023-05-23T05:47:23.090Z,5.90
2023-05-23T05:49:50.832Z,5.90
2023-05-23T05:52:18.530Z,5.60
2023-05-23T05:54:46.100Z,5.60
2023-05-23T05:57:13.756Z,6.00
2023-05-23T05:59:41.172Z,5.80
2023-05-23T06:02:09.316Z,5.70
2023-05-23T06:04:37.170Z,6.40
2023-05-23T06:07:05.594Z,5.60
2023-05-23T06:09:33.167Z,5.60
2023-05-23T06:12:01.419Z,5.70
2023-05-23T06:14:28.888Z,6.00
2023-05-23T06:16:57.891Z,5.40
2023-05-23T06:19:25.600Z,6.00
2023-05-23T06:21:53.414Z,5.40
2023-05-23T06:24:21.111Z,6.00
2023-05-23T06:26:48.566Z,5.20
2023-05-23T06:29:16.248Z,5.60
2023-05-23T06:31:43.815Z,5.70
2023-05-23T06:34:11.510Z,5.90
2023-05-23T06:36:39.990Z,5.90
2023-05-23T06:39:10.046Z,5.60
2023-05-23T06:41:37.840Z,6.00
2023-05-23T06:44:05.726Z,5.60
2023-05-23T06:46:33.152Z,5.50
2023-05-23T06:49:13.893Z,4.80
2023-05-23T06:51:42.241Z,4.50
2023-05-23T06:54:10.306Z,5.00
2023-05-23T06:56:37.912Z,4.10
2023-05-23T06:59:06.122Z,4.70
2023-05-23T07:01:33.835Z,4.50
2023-05-23T07:04:01.236Z,4.90
2023-05-23T07:06:28.751Z,4.70
2023-05-23T07:08:57.914Z,4.90
2023-05-23T07:11:26.548Z,5.70
2023-05-23T07:13:56.565Z,5.60
2023-05-23T07:16:35.176Z,4.40
2023-05-23T07:19:05.618Z,4.80
2023-05-23T07:21:36.205Z,5.50
2023-05-23T07:24:03.976Z,5.10
2023-05-23T07:26:31.464Z,4.60
2023-05-23T07:28:59.898Z,4.50
2023-05-23T07:31:27.674Z,4.70
2023-05-23T07:33:57.470Z,5.10
2023-05-23T07:36:41.205Z,5.40
2023-05-23T07:39:11.046Z,5.60
2023-05-23T07:41:38.414Z,4.70
2023-05-23T07:44:07.276Z,5.10
2023-05-23T07:46:35.293Z,4.70
2023-05-23T07:49:02.723Z,4.20
2023-05-23T07:51:31.042Z,4.40
2023-05-23T07:53:58.454Z,4.40
2023-05-23T07:56:26.831Z,3.90
2023-05-23T07:58:54.336Z,4.00
2023-05-23T08:01:22.306Z,4.00
2023-05-23T08:04:08.296Z,4.70
2023-05-23T08:06:48.692Z,3.20
2023-05-23T08:09:33.229Z,3.90
2023-05-23T08:27:09.072Z,4.00
2023-05-23T08:29:36.906Z,4.40
2023-05-23T08:32:03.931Z,4.40
2023-05-23T08:34:31.296Z,5.10
2023-05-23T08:36:58.253Z,5.10
2023-05-23T08:39:25.423Z,5.10
2023-05-23T08:41:57.164Z,4.20
2023-05-23T08:44:23.906Z,4.20
2023-05-23T08:46:54.637Z,5.30
2023-05-23T08:49:43.624Z,4.70
2023-05-23T08:52:12.253Z,4.80
2023-05-23T08:54:40.665Z,5.00
2023-05-23T08:57:07.507Z,4.20
2023-05-23T08:59:38.344Z,4.80
2023-05-23T09:02:06.458Z,4.70
2023-05-23T09:04:34.286Z,3.90
2023-05-23T09:07:06.787Z,3.70
2023-05-23T09:09:34.226Z,4.70
2023-05-23T09:12:02.964Z,4.00
2023-05-23T09:14:32.152Z,4.50
2023-05-23T09:17:04.352Z,4.60
2023-05-23T09:19:31.673Z,3.80
2023-05-23T09:22:03.250Z,3.60
2023-05-23T09:24:39.466Z,4.20
2023-05-23T09:27:07.870Z,4.00
2023-05-23T09:29:39.889Z,4.00
2023-05-23T09:32:19.636Z,3.30
2023-05-23T09:34:59.109Z,3.80
2023-05-23T09:37:30.835Z,3.70
2023-05-23T09:39:58.901Z,3.60
2023-05-23T09:42:25.658Z,4.10
2023-05-23T09:44:53.164Z,3.70
2023-05-23T09:47:20.311Z,3.20
2023-05-23T09:49:47.720Z,3.90
2023-05-23T09:52:14.696Z,3.10
2023-05-23T09:54:41.480Z,2.80
2023-05-23T09:57:10.292Z,3.60
2023-05-23T09:59:41.033Z,3.80
2023-05-23T10:02:10.984Z,3.30
2023-05-23T10:04:39.187Z,3.60
2023-05-23T10:07:17.954Z,3.60
2023-05-23T10:09:59.482Z,3.80
2023-05-23T10:12:32.504Z,3.60
2023-05-23T10:15:02.643Z,3.50
2023-05-23T10:17:37.001Z,2.90
2023-05-23T10:20:07.795Z,3.60
2023-05-23T10:22:35.954Z,3.10
2023-05-23T10:25:08.053Z,3.10
2023-05-23T10:27:34.855Z,2.50
2023-05-23T10:30:01.723Z,3.30
2023-05-23T10:32:29.089Z,2.70
2023-05-23T10:35:01.776Z,3.40
2023-05-23T10:37:56.803Z,3.30
2023-05-23T10:40:26.436Z,3.80
2023-05-23T10:43:10.306Z,3.30
2023-05-23T10:45:44.009Z,4.10
2023-05-23T10:48:32.164Z,3.40
2023-05-23T10:51:05.147Z,3.30
2023-05-23T10:53:34.752Z,3.20
2023-05-23T10:56:01.498Z,3.70
2023-05-23T10:58:32.240Z,3.30
2023-05-23T11:01:08.089Z,3.50
2023-05-23T11:03:48.112Z,2.90
2023-05-23T11:06:38.321Z,3.60
2023-05-23T11:13:23.017Z,3.80
2023-05-23T11:15:50.489Z,3.30
2023-05-23T11:18:22.795Z,3.30
2023-05-23T11:24:16.495Z,3.40
2023-05-23T11:27:04.322Z,2.90
2023-05-23T11:29:31.816Z,3.00
2023-05-23T11:32:26.034Z,3.00
2023-05-23T11:34:53.480Z,3.30
2023-05-23T11:37:25.939Z,3.10
2023-05-23T11:39:55.240Z,3.40
2023-05-23T11:42:22.830Z,3.50
2023-05-23T11:44:51.541Z,3.50
2023-05-23T11:47:40.927Z,3.70
2023-05-23T11:50:08.859Z,3.40
2023-05-23T11:52:36.280Z,3.50
2023-05-23T11:55:04.200Z,3.70
2023-05-23T11:57:31.722Z,3.10
2023-05-23T11:59:59.243Z,3.60
2023-05-23T12:02:28.647Z,3.50
2023-05-23T12:04:56.154Z,3.50
2023-05-23T12:07:23.652Z,3.80
2023-05-23T12:09:51.154Z,3.50
2023-05-23T12:12:20.614Z,3.30
2023-05-23T12:14:48.140Z,3.20
2023-05-23T12:17:16.116Z,3.50
2023-05-23T12:19:46.004Z,3.30
2023-05-23T12:22:13.569Z,3.00
2023-05-23T12:24:47.775Z,3.70
2023-05-23T12:27:17.501Z,3.60
2023-05-23T12:29:50.423Z,3.30
2023-05-23T12:32:17.880Z,3.90
2023-05-23T12:34:45.444Z,3.50
2023-05-23T12:39:45.648Z,3.70
2023-05-23T12:42:13.247Z,3.60
2023-05-23T12:44:43.922Z,4.20
2023-05-23T12:47:11.340Z,3.70
2023-05-23T12:49:38.873Z,3.10
2023-05-23T12:52:06.573Z,4.00
2023-05-23T12:54:34.113Z,3.40
2023-05-23T12:57:01.580Z,3.00
2023-05-23T12:59:29.118Z,3.00
2023-05-23T13:01:56.666Z,3.10
2023-05-23T13:04:24.140Z,3.50
2023-05-23T13:06:53.050Z,3.30
2023-05-23T13:09:20.891Z,3.20
2023-05-23T13:11:48.367Z,3.00
2023-05-23T13:14:16.109Z,2.90
2023-05-23T13:17:18.759Z,3.40
2023-05-23T13:19:49.536Z,3.30
2023-05-23T13:25:52.828Z,3.40
2023-05-23T13:28:20.389Z,3.30
2023-05-23T13:30:48.209Z,3.70
2023-05-23T13:33:16.147Z,3.30
2023-05-23T13:35:44.345Z,3.80
2023-05-23T13:38:12.810Z,3.70
2023-05-23T13:40:40.507Z,3.40
2023-05-23T13:43:29.743Z,3.80
2023-05-23T13:45:57.268Z,3.50
2023-05-23T13:48:24.702Z,3.30
2023-05-23T13:50:52.208Z,3.60
2023-05-23T13:53:19.714Z,3.40
2023-05-23T13:55:47.227Z,3.30
2023-05-23T13:58:14.680Z,3.40
2023-05-23T14:00:46.431Z,3.10
2023-05-23T14:03:15.753Z,2.70
2023-05-23T14:05:52.273Z,3.60
2023-05-23T14:08:22.930Z,3.70
2023-05-23T14:11:41.990Z,3.10
2023-05-23T14:14:09.525Z,2.80
2023-05-23T14:16:37.044Z,3.30
2023-05-23T14:19:04.622Z,2.70
2023-05-23T14:21:32.545Z,3.00
2023-05-23T14:23:59.912Z,3.10
2023-05-23T14:26:27.610Z,3.20
2023-05-23T14:28:55.044Z,3.00
2023-05-23T14:31:22.585Z,3.10
2023-05-23T14:33:50.250Z,3.30
2023-05-23T14:36:18.183Z,3.30
2023-05-23T14:38:46.415Z,2.90
2023-05-23T14:41:14.191Z,2.90
2023-05-23T14:43:41.637Z,2.80
2023-05-23T14:46:16.141Z,2.80
2023-05-23T14:49:10.006Z,2.60
2023-05-23T14:51:47.457Z,2.50
2023-05-23T14:54:17.610Z,3.00
2023-05-23T14:56:45.052Z,2.60
2023-05-23T14:59:12.499Z,2.30
2023-05-23T15:01:55.870Z,2.80
2023-05-23T15:04:29.430Z,3.10
2023-05-23T15:06:57.527Z,2.50
2023-05-23T15:09:25.111Z,3.00
2023-05-23T15:11:52.584Z,3.30
2023-05-23T15:14:20.183Z,2.70
2023-05-23T15:16:48.942Z,2.30
2023-05-23T15:19:16.915Z,2.60
2023-05-23T15:21:50.387Z,3.20
2023-05-23T15:24:19.193Z,2.50
2023-05-23T15:26:47.262Z,2.60
2023-05-23T15:29:17.072Z,2.70
2023-05-23T15:31:45.247Z,3.10
2023-05-23T15:34:12.724Z,2.90
2023-05-23T15:36:40.448Z,3.80
2023-05-23T15:39:07.958Z,2.50
2023-05-23T15:41:35.510Z,3.20
2023-05-23T15:44:02.945Z,3.30
2023-05-23T15:46:53.236Z,3.10
2023-05-23T15:49:27.352Z,3.30
2023-05-23T15:51:55.651Z,2.70
2023-05-23T15:54:23.221Z,2.60
2023-05-23T15:56:50.778Z,2.70
2023-05-23T15:59:18.247Z,2.90
2023-05-23T16:01:45.713Z,2.80
2023-05-23T16:04:13.321Z,3.30
2023-05-23T16:06:43.846Z,3.10
2023-05-23T16:09:11.385Z,2.60
2023-05-23T16:11:38.852Z,2.50
2023-05-23T16:14:06.600Z,2.90
2023-05-23T16:16:45.837Z,2.70
2023-05-23T16:19:13.357Z,3.40
2023-05-23T16:21:40.850Z,4.00
2023-05-23T16:24:08.345Z,2.80
2023-05-23T16:26:35.747Z,3.60
2023-05-23T16:29:03.181Z,3.00
2023-05-23T16:31:30.765Z,3.00
2023-05-23T16:33:58.868Z,3.00
2023-05-23T16:36:27.426Z,3.10
2023-05-23T16:38:55.772Z,3.00
2023-05-23T16:41:23.519Z,2.90
2023-05-23T16:43:51.762Z,3.00
2023-05-23T16:46:20.629Z,3.50
2023-05-23T16:48:48.807Z,3.00
2023-05-23T16:51:16.429Z,2.80
2023-05-23T16:53:43.854Z,3.10
2023-05-23T16:56:11.398Z,3.40
2023-05-23T16:58:38.974Z,3.20
2023-05-23T17:01:07.372Z,3.10
2023-05-23T17:03:35.557Z,3.20
2023-05-23T17:06:03.242Z,3.50
2023-05-23T17:08:30.588Z,3.50
2023-05-23T17:10:57.979Z,3.30
2023-05-23T17:13:25.369Z,3.40
2023-05-23T17:15:52.727Z,4.10
2023-05-23T17:18:20.385Z,3.80
2023-05-23T17:20:47.805Z,3.60
2023-05-23T17:23:15.248Z,3.00
2023-05-23T17:25:43.002Z,3.50
2023-05-23T17:28:11.567Z,3.60
2023-05-23T17:30:38.996Z,3.50
2023-05-23T17:33:06.538Z,4.10
2023-05-23T17:35:34.392Z,3.30
2023-05-23T17:38:02.618Z,3.70
2023-05-23T17:40:30.226Z,3.80
2023-05-23T17:42:57.705Z,4.20
2023-05-23T17:45:25.106Z,3.20
2023-05-23T17:47:52.539Z,3.70
2023-05-23T17:50:19.973Z,3.00
2023-05-23T17:52:47.992Z,3.80
2023-05-23T17:55:15.498Z,3.60
2023-05-23T17:57:43.536Z,3.60
2023-05-23T18:00:11.755Z,4.00
2023-05-23T18:02:42.305Z,4.00
2023-05-23T18:05:10.728Z,3.70
2023-05-23T18:07:38.150Z,3.80
2023-05-23T18:10:06.595Z,4.00
2023-05-23T18:12:34.047Z,4.10
2023-05-23T18:15:01.481Z,4.50
2023-05-23T18:17:29.009Z,4.10
2023-05-23T18:19:57.016Z,3.70
2023-05-23T18:22:25.047Z,4.30
2023-05-23T18:24:52.545Z,3.90
2023-05-23T18:27:20.060Z,4.00
2023-05-23T18:29:47.515Z,4.20
2023-05-23T18:32:15.293Z,4.40
2023-05-23T18:34:42.849Z,4.20
2023-05-23T18:37:10.359Z,5.30
2023-05-23T18:39:37.795Z,4.60
2023-05-23T18:42:05.785Z,3.70
2023-05-23T18:44:33.384Z,3.80
2023-05-23T18:47:01.004Z,4.10
2023-05-23T18:49:28.491Z,3.80
2023-05-23T18:51:57.026Z,3.60
2023-05-23T18:54:24.443Z,3.50
2023-05-23T18:56:51.842Z,4.00
2023-05-23T18:59:19.207Z,4.60
2023-05-23T19:01:46.787Z,4.80
2023-05-23T19:04:14.344Z,6.00
2023-05-23T19:06:41.824Z,6.30
2023-05-23T19:09:11.721Z,4.70
2023-05-23T19:11:39.976Z,5.40
2023-05-23T19:14:07.351Z,8.40
2023-05-23T19:16:36.539Z,7.40
2023-05-23T19:19:03.979Z,6.00
2023-05-23T19:21:32.015Z,5.40
2023-05-23T19:23:59.505Z,6.50
2023-05-23T19:26:28.130Z,6.30
2023-05-23T19:28:55.657Z,5.30
2023-05-23T19:31:23.216Z,5.30
2023-05-23T19:33:50.697Z,5.40
2023-05-23T19:36:18.190Z,4.40
2023-05-23T19:38:45.647Z,5.30
2023-05-23T19:41:13.035Z,4.80
2023-05-23T19:43:40.456Z,5.90
2023-05-23T19:46:08.053Z,5.90
2023-05-23T19:48:35.530Z,6.50
2023-05-23T19:51:02.993Z,6.40
2023-05-23T19:53:31.212Z,6.30
2023-05-23T19:55:58.615Z,7.50
2023-05-23T19:58:26.046Z,8.10
2023-05-23T20:00:53.434Z,8.60
2023-05-23T20:03:20.974Z,8.30
2023-05-23T20:05:48.514Z,8.40
2023-05-23T20:08:17.425Z,7.80
2023-05-23T20:10:45.992Z,6.50
2023-05-23T20:13:13.534Z,6.30
2023-05-23T20:15:41.242Z,6.70
2023-05-23T20:18:08.983Z,6.90
2023-05-23T20:20:36.567Z,6.70
2023-05-23T20:23:04.946Z,6.60
2023-05-23T20:25:33.880Z,7.10
2023-05-23T20:28:01.373Z,6.80
2023-05-23T20:30:29.231Z,7.10
2023-05-23T20:32:56.805Z,7.00
2023-05-23T20:35:24.301Z,7.50
2023-05-23T20:37:51.934Z,5.30
2023-05-23T20:40:23.019Z,5.60
2023-05-23T20:42:50.551Z,6.30
2023-05-23T20:45:18.318Z,5.70
2023-05-23T20:47:46.482Z,5.80
2023-05-23T20:50:14.846Z,6.30
2023-05-23T20:52:43.302Z,6.20
2023-05-23T20:55:11.218Z,6.40
2023-05-23T20:57:39.830Z,7.50
2023-05-23T21:00:11.331Z,6.20
2023-05-23T21:02:42.591Z,6.80
2023-05-23T21:05:10.608Z,6.60
2023-05-23T21:07:38.473Z,5.60
2023-05-23T21:10:06.505Z,6.50
2023-05-23T21:12:34.476Z,7.40
2023-05-23T21:15:01.949Z,6.60
2023-05-23T21:17:29.402Z,7.60
2023-05-23T21:19:57.274Z,6.90
2023-05-23T21:22:24.821Z,6.40
2023-05-23T21:24:52.283Z,7.00
2023-05-23T21:27:20.204Z,5.60
2023-05-23T21:29:47.702Z,5.60
2023-05-23T21:32:15.128Z,5.90
2023-05-23T21:34:42.585Z,5.80
2023-05-23T21:37:10.081Z,6.50
2023-05-23T21:39:50.694Z,7.30
2023-05-23T21:42:19.631Z,6.40
2023-05-23T21:44:47.179Z,7.30
2023-05-23T21:47:14.672Z,6.20
2023-05-23T21:49:42.283Z,7.10
2023-05-23T21:52:09.730Z,6.70
2023-05-23T21:54:37.199Z,6.90
2023-05-23T21:58:07.741Z,6.10
2023-05-23T22:00:35.176Z,7.50
2023-05-23T22:03:02.704Z,6.90
2023-05-23T22:05:30.222Z,7.10
2023-05-23T22:07:57.649Z,7.80
2023-05-23T22:10:25.121Z,8.30
2023-05-23T22:12:52.571Z,8.00
2023-05-23T22:15:20.095Z,8.10
2023-05-23T22:17:47.537Z,9.20
2023-05-23T22:20:16.843Z,8.90
2023-05-23T22:22:44.272Z,8.90
2023-05-23T22:25:11.687Z,8.70
2023-05-23T22:27:39.187Z,8.40
2023-05-23T22:30:07.160Z,7.60
2023-05-23T22:32:34.723Z,8.00
2023-05-23T22:35:02.416Z,8.20
2023-05-23T22:37:30.019Z,8.90
2023-05-23T22:39:57.558Z,7.80
2023-05-23T22:42:25.213Z,8.50
2023-05-23T22:44:52.720Z,8.30
2023-05-23T22:47:20.437Z,7.20
2023-05-23T22:49:48.021Z,7.80
2023-05-23T22:52:16.841Z,7.60
2023-05-23T22:54:44.413Z,7.30
2023-05-23T22:57:12.084Z,8.00
2023-05-23T22:59:39.875Z,8.20
2023-05-23T23:02:07.483Z,7.50
2023-05-23T23:04:35.567Z,7.50
2023-05-23T23:07:03.092Z,7.10
2023-05-23T23:09:30.649Z,8.20
2023-05-23T23:11:58.082Z,9.10
2023-05-23T23:14:25.922Z,7.60
2023-05-23T23:16:53.562Z,8.50
2023-05-23T23:19:22.012Z,8.00
2023-05-23T23:21:49.517Z,7.40
2023-05-23T23:24:17.951Z,8.20
2023-05-23T23:39:20.686Z,8.70
2023-05-23T23:41:47.755Z,9.40
2023-05-23T23:44:14.967Z,8.90
2023-05-23T23:46:41.903Z,9.10
2023-05-23T23:49:08.565Z,8.80
2023-05-23T23:51:36.120Z,8.90
2023-05-23T23:54:02.754Z,8.60
2023-05-23T23:56:29.745Z,8.30
2023-05-23T23:58:56.363Z,8.90
